createdAt,value
2022-10-01T00:01:24.602Z,10.40
2022-10-01T00:03:53.275Z,11.02
2022-10-01T00:06:22.236Z,11.88
2022-10-01T00:08:51.054Z,11.35
2022-10-01T00:11:25.305Z,10.73
2022-10-01T00:13:54.737Z,11.05
2022-10-01T00:16:26.677Z,9.93
2022-10-01T00:18:54.956Z,9.50
2022-10-01T00:21:31.729Z,10.63
2022-10-01T00:24:04.701Z,10.65
2022-10-01T00:26:37.273Z,9.75
2022-10-01T00:29:12.444Z,9.55
2022-10-01T00:31:40.390Z,10.77
2022-10-01T00:34:07.702Z,11.60
2022-10-01T00:36:35.055Z,10.10
2022-10-01T00:39:03.322Z,11.32
2022-10-01T00:41:34.347Z,10.18
2022-10-01T00:44:28.217Z,8.90
2022-10-01T00:47:03.185Z,11.18
2022-10-01T00:49:35.153Z,9.88
2022-10-01T00:52:13.779Z,9.90
2022-10-01T00:55:01.684Z,10.63
2022-10-01T00:57:30.957Z,11.65
2022-10-01T01:00:02.993Z,11.02
2022-10-01T01:02:30.729Z,11.50
2022-10-01T01:04:58.901Z,12.73
2022-10-01T01:07:27.355Z,10.02
2022-10-01T01:09:55.460Z,11.18
2022-10-01T01:13:04.505Z,11.15
2022-10-01T01:15:39.444Z,10.35
2022-10-01T01:18:17.440Z,9.88
2022-10-01T01:20:59.090Z,9.32
2022-10-01T01:23:42.214Z,9.00
2022-10-01T01:26:50.644Z,9.63
2022-10-01T01:29:30.122Z,10.32
2022-10-01T01:32:11.490Z,9.35
2022-10-01T01:34:47.139Z,8.95
2022-10-01T01:37:21.953Z,8.80
2022-10-01T01:39:54.585Z,8.95
2022-10-01T01:42:37.180Z,9.07
2022-10-01T01:45:10.656Z,8.30
2022-10-01T01:47:42.134Z,8.50
2022-10-01T01:50:13.753Z,8.73
2022-10-01T01:52:41.277Z,8.82
2022-10-01T01:55:10.619Z,8.45
2022-10-01T01:57:43.363Z,8.35
2022-10-01T02:00:14.300Z,9.30
2022-10-01T02:02:51.043Z,7.97
2022-10-01T02:05:25.683Z,8.15
2022-10-01T02:08:19.194Z,8.70
2022-10-01T02:11:09.728Z,9.98
2022-10-01T02:14:11.979Z,8.55
2022-10-01T02:17:07.413Z,9.43
2022-10-01T02:19:58.729Z,8.38
2022-10-01T02:22:52.817Z,9.07
2022-10-01T02:25:27.094Z,8.50
2022-10-01T02:28:06.168Z,8.07
2022-10-01T02:30:36.174Z,7.68
2022-10-01T02:33:07.714Z,9.50
2022-10-01T02:35:37.922Z,9.00
2022-10-01T02:38:09.849Z,8.35
2022-10-01T02:40:44.030Z,8.60
2022-10-01T02:43:32.585Z,10.10
2022-10-01T02:46:28.374Z,10.20
2022-10-01T02:48:57.594Z,8.38
2022-10-01T02:51:47.597Z,9.23
2022-10-01T02:54:32.461Z,8.13
2022-10-01T02:57:18.477Z,9.65
2022-10-01T02:59:46.145Z,8.85
2022-10-01T03:02:13.898Z,10.73
2022-10-01T03:04:41.153Z,9.20
2022-10-01T03:07:08.839Z,9.35
2022-10-01T03:09:38.765Z,8.57
2022-10-01T03:12:06.841Z,9.27
2022-10-01T03:14:34.281Z,8.13
2022-10-01T03:17:03.415Z,8.95
2022-10-01T03:19:30.941Z,7.53
2022-10-01T03:21:58.313Z,9.77
2022-10-01T03:24:25.977Z,8.63
2022-10-01T03:26:53.807Z,7.82
2022-10-01T03:29:20.961Z,9.50
2022-10-01T03:31:48.448Z,8.77
2022-10-01T03:34:15.506Z,8.85
2022-10-01T03:36:42.638Z,8.30
2022-10-01T03:39:10.309Z,9.73
2022-10-01T03:41:37.290Z,10.85
2022-10-01T03:44:04.969Z,11.27
2022-10-01T03:46:32.733Z,9.88
2022-10-01T03:49:00.823Z,9.95
2022-10-01T03:51:29.832Z,9.65
2022-10-01T03:53:58.653Z,8.57
2022-10-01T03:56:26.132Z,9.65
2022-10-01T03:58:53.517Z,8.48
2022-10-01T04:01:21.339Z,9.25
2022-10-01T04:03:50.250Z,11.77
2022-10-01T04:06:17.695Z,9.55
2022-10-01T04:08:44.998Z,10.25
2022-10-01T04:11:12.485Z,9.73
2022-10-01T04:13:39.630Z,8.75
2022-10-01T04:16:07.404Z,9.77
2022-10-01T04:18:35.213Z,8.40
2022-10-01T04:21:04.430Z,8.68
2022-10-01T04:23:31.759Z,8.63
2022-10-01T04:26:02.394Z,7.95
2022-10-01T04:28:31.333Z,8.85
2022-10-01T04:31:18.093Z,8.85
2022-10-01T04:33:45.906Z,8.95
2022-10-01T04:36:13.829Z,8.95
2022-10-01T04:38:40.898Z,9.63
2022-10-01T04:41:09.265Z,9.55
2022-10-01T04:43:37.113Z,7.10
2022-10-01T04:46:04.109Z,8.90
2022-10-01T04:48:31.344Z,8.38
2022-10-01T04:50:58.393Z,8.60
2022-10-01T04:53:25.521Z,9.25
2022-10-01T04:55:52.817Z,10.65
2022-10-01T04:58:20.109Z,10.80
2022-10-01T05:00:49.880Z,9.50
2022-10-01T05:03:18.391Z,10.65
2022-10-01T05:05:45.622Z,10.20
2022-10-01T05:08:12.649Z,11.57
2022-10-01T05:10:39.920Z,10.85
2022-10-01T05:13:07.229Z,13.20
2022-10-01T05:15:35.687Z,12.15
2022-10-01T05:18:03.020Z,13.02
2022-10-01T05:20:30.644Z,12.45
2022-10-01T05:22:57.633Z,16.65
2022-10-01T05:25:24.944Z,15.40
2022-10-01T05:27:52.268Z,18.05
2022-10-01T05:30:24.496Z,16.45
2022-10-01T05:35:25.404Z,13.15
2022-10-01T05:37:54.775Z,13.98
2022-10-01T05:40:24.281Z,12.35
2022-10-01T05:42:51.626Z,12.55
2022-10-01T05:45:20.907Z,13.75
2022-10-01T05:47:49.632Z,13.02
2022-10-01T05:50:17.190Z,11.85
2022-10-01T05:52:53.472Z,12.10
2022-10-01T05:55:22.312Z,12.35
2022-10-01T05:58:10.441Z,12.63
2022-10-01T06:00:40.591Z,15.90
2022-10-01T06:03:08.814Z,14.00
2022-10-01T06:05:36.674Z,13.82
2022-10-01T06:08:09.653Z,14.98
2022-10-01T06:10:37.850Z,16.35
2022-10-01T06:13:06.583Z,16.85
2022-10-01T06:15:38.269Z,16.70
2022-10-01T06:18:10.908Z,15.33
2022-10-01T06:20:40.824Z,16.45
2022-10-01T06:23:12.360Z,13.18
2022-10-01T06:25:42.898Z,14.52
2022-10-01T06:28:14.740Z,17.75
2022-10-01T06:30:43.576Z,17.02
2022-10-01T06:33:15.102Z,30.77
2022-10-01T06:35:49.758Z,17.75
2022-10-01T06:38:21.342Z,23.25
2022-10-01T06:40:58.077Z,18.50
2022-10-01T06:43:29.223Z,23.90
2022-10-01T06:45:57.548Z,17.17
2022-10-01T06:48:24.602Z,27.90
2022-10-01T06:50:53.055Z,27.42
2022-10-01T06:53:20.548Z,28.80
2022-10-01T06:55:49.830Z,32.75
2022-10-01T06:58:21.025Z,26.20
2022-10-01T07:00:49.752Z,27.45
2022-10-01T07:03:21.950Z,33.60
2022-10-01T07:05:50.162Z,36.78
2022-10-01T07:08:18.233Z,28.85
2022-10-01T07:10:45.720Z,34.55
2022-10-01T07:13:17.734Z,32.10
2022-10-01T07:15:46.427Z,31.90
2022-10-01T07:18:14.271Z,34.30
2022-10-01T07:20:42.042Z,28.23
2022-10-01T07:23:13.609Z,29.23
2022-10-01T07:25:42.677Z,31.38
2022-10-01T07:28:18.960Z,29.73
2022-10-01T07:30:59.336Z,27.00
2022-10-01T07:33:27.932Z,21.10
2022-10-01T07:35:55.582Z,22.02
2022-10-01T07:38:22.554Z,18.88
2022-10-01T07:40:54.687Z,22.95
2022-10-01T07:43:22.573Z,22.60
2022-10-01T07:45:52.306Z,20.60
2022-10-01T07:48:19.557Z,19.98
2022-10-01T07:50:47.206Z,16.65
2022-10-01T07:53:14.621Z,17.30
2022-10-01T07:55:42.334Z,16.42
2022-10-01T07:58:10.660Z,14.32
2022-10-01T08:00:39.991Z,17.27
2022-10-01T08:03:07.406Z,15.98
2022-10-01T08:05:36.090Z,16.25
2022-10-01T08:08:08.728Z,16.52
2022-10-01T08:10:38.979Z,16.50
2022-10-01T08:13:18.601Z,16.58
2022-10-01T08:15:50.500Z,19.63
2022-10-01T08:18:17.900Z,21.45
2022-10-01T08:20:44.964Z,22.95
2022-10-01T08:23:16.206Z,23.30
2022-10-01T08:25:45.744Z,24.17
2022-10-01T08:28:13.872Z,18.98
2022-10-01T08:30:42.593Z,20.98
2022-10-01T08:33:14.515Z,23.77
2022-10-01T08:35:43.584Z,25.00
2022-10-01T08:38:14.487Z,30.02
2022-10-01T08:40:50.574Z,24.25
2022-10-01T08:43:36.435Z,29.35
2022-10-01T08:46:15.036Z,32.80
2022-10-01T08:49:27.873Z,28.48
2022-10-01T08:52:22.047Z,26.17
2022-10-01T08:54:59.231Z,27.42
2022-10-01T08:57:37.038Z,25.83
2022-10-01T09:00:13.458Z,23.65
2022-10-01T09:02:43.506Z,23.08
2022-10-01T09:05:36.381Z,26.35
2022-10-01T09:08:22.282Z,24.48
2022-10-01T09:11:00.610Z,23.83
2022-10-01T09:13:58.276Z,26.75
2022-10-01T09:16:43.473Z,24.38
2022-10-01T09:19:44.227Z,24.63
2022-10-01T09:22:28.313Z,24.98
2022-10-01T09:25:25.975Z,25.98
2022-10-01T09:28:10.121Z,22.35
2022-10-01T09:33:20.419Z,25.45
2022-10-01T09:36:21.855Z,24.23
2022-10-01T09:39:24.170Z,26.60
2022-10-01T09:41:52.038Z,28.35
2022-10-01T09:44:28.338Z,25.48
2022-10-01T09:46:55.683Z,25.60
2022-10-01T09:49:43.680Z,25.60
2022-10-01T09:52:27.558Z,25.02
2022-10-01T09:55:42.797Z,27.58
2022-10-01T09:58:17.419Z,29.33
2022-10-01T10:00:48.206Z,25.13
2022-10-01T10:03:24.171Z,21.70
2022-10-01T10:05:52.714Z,24.15
2022-10-01T10:08:35.691Z,19.88
2022-10-01T10:11:08.192Z,23.95
2022-10-01T10:13:51.963Z,20.17
2022-10-01T10:16:45.240Z,24.65
2022-10-01T10:19:28.661Z,27.70
2022-10-01T10:22:19.439Z,22.80
2022-10-01T10:24:47.763Z,20.25
2022-10-01T10:27:29.218Z,19.95
2022-10-01T10:30:17.246Z,16.50
2022-10-01T10:32:47.104Z,16.15
2022-10-01T10:35:44.319Z,19.50
2022-10-01T10:38:20.382Z,15.20
2022-10-01T10:40:48.085Z,16.38
2022-10-01T10:43:22.886Z,17.48
2022-10-01T10:45:56.466Z,19.60
2022-10-01T10:48:35.382Z,15.95
2022-10-01T10:51:05.421Z,16.05
2022-10-01T10:53:46.319Z,15.60
2022-10-01T10:56:24.323Z,27.63
2022-10-01T10:58:53.769Z,20.27
2022-10-01T11:01:29.398Z,23.38
2022-10-01T11:04:00.779Z,32.10
2022-10-01T11:06:28.487Z,16.10
2022-10-01T11:09:07.263Z,24.77
2022-10-01T11:11:54.970Z,20.38
2022-10-01T11:14:56.661Z,16.52
2022-10-01T11:17:55.224Z,19.63
2022-10-01T11:20:41.134Z,15.23
2022-10-01T11:24:02.308Z,17.60
2022-10-01T11:26:55.781Z,15.25
2022-10-01T11:30:09.140Z,14.95
2022-10-01T11:36:04.520Z,17.25
2022-10-01T11:38:54.496Z,24.77
2022-10-01T11:41:38.924Z,22.35
2022-10-01T11:44:26.788Z,16.58
2022-10-01T11:47:03.148Z,16.70
2022-10-01T11:50:04.960Z,14.45
2022-10-01T11:53:07.733Z,15.43
2022-10-01T11:56:21.385Z,15.57
2022-10-01T11:59:13.744Z,15.30
2022-10-01T12:02:03.689Z,14.85
2022-10-01T12:04:41.525Z,14.43
2022-10-01T12:07:26.995Z,16.73
2022-10-01T12:10:38.813Z,13.52
2022-10-01T12:13:34.491Z,15.50
2022-10-01T12:16:41.168Z,13.10
2022-10-01T12:19:27.658Z,22.88
2022-10-01T12:22:25.572Z,16.35
2022-10-01T12:24:54.290Z,15.07
2022-10-01T12:28:09.279Z,15.35
2022-10-01T12:31:16.317Z,14.98
2022-10-01T12:34:00.075Z,15.60
2022-10-01T12:36:52.498Z,14.48
2022-10-01T12:39:52.018Z,12.73
2022-10-01T12:43:13.955Z,12.15
2022-10-01T12:46:07.258Z,11.57
2022-10-01T12:49:00.817Z,11.20
2022-10-01T12:51:46.341Z,10.90
2022-10-01T12:54:58.018Z,11.13
2022-10-01T12:57:49.080Z,11.48
2022-10-01T13:00:26.523Z,12.10
2022-10-01T13:03:42.818Z,10.40
2022-10-01T13:06:43.863Z,12.38
2022-10-01T13:09:23.948Z,12.55
2022-10-01T13:12:31.670Z,10.82
2022-10-01T13:15:00.005Z,11.70
2022-10-01T13:17:48.713Z,12.82
2022-10-01T13:20:51.591Z,10.88
2022-10-01T13:24:04.594Z,10.52
2022-10-01T13:26:40.799Z,10.10
2022-10-01T13:29:35.659Z,12.30
2022-10-01T13:32:27.403Z,9.70
2022-10-01T13:34:56.262Z,10.23
2022-10-01T13:37:40.107Z,9.45
2022-10-01T13:40:31.228Z,10.50
2022-10-01T13:43:19.877Z,9.63
2022-10-01T13:45:52.405Z,9.32
2022-10-01T13:48:29.336Z,10.57
2022-10-01T13:51:10.672Z,10.57
2022-10-01T13:53:52.010Z,10.97
2022-10-01T13:56:35.422Z,10.07
2022-10-01T13:59:21.359Z,9.15
2022-10-01T14:01:48.960Z,9.27
2022-10-01T14:04:21.846Z,11.13
2022-10-01T14:10:00.077Z,10.25
2022-10-01T14:12:54.123Z,10.00
2022-10-01T14:15:54.008Z,9.02
2022-10-01T14:18:33.104Z,9.60
2022-10-01T14:21:17.354Z,10.50
2022-10-01T14:24:05.297Z,10.05
2022-10-01T14:27:05.306Z,9.18
2022-10-01T14:30:11.463Z,9.60
2022-10-01T14:33:16.785Z,10.63
2022-10-01T14:36:15.666Z,12.38
2022-10-01T14:38:43.365Z,10.98
2022-10-01T14:41:24.129Z,10.98
2022-10-01T14:43:51.563Z,11.20
2022-10-01T14:46:19.415Z,15.07
2022-10-01T14:48:58.970Z,13.73
2022-10-01T14:51:31.138Z,15.00
2022-10-01T14:54:00.519Z,17.38
2022-10-01T14:56:29.353Z,16.05
2022-10-01T14:59:04.366Z,16.63
2022-10-01T15:01:31.929Z,13.13
2022-10-01T15:03:59.300Z,12.88
2022-10-01T15:06:29.751Z,14.02
2022-10-01T15:09:14.421Z,13.70
2022-10-01T15:11:44.844Z,14.65
2022-10-01T15:14:22.285Z,13.45
2022-10-01T15:16:50.983Z,15.75
2022-10-01T15:19:22.983Z,19.58
2022-10-01T15:21:57.758Z,16.70
2022-10-01T15:24:49.015Z,20.80
2022-10-01T15:27:21.284Z,19.92
2022-10-01T15:29:56.545Z,19.92
2022-10-01T15:32:27.213Z,20.60
2022-10-01T15:35:04.403Z,19.50
2022-10-01T15:37:35.601Z,22.65
2022-10-01T15:40:07.453Z,18.88
2022-10-01T15:42:35.978Z,16.90
2022-10-01T15:45:09.294Z,16.77
2022-10-01T15:47:58.503Z,17.00
2022-10-01T15:50:36.551Z,15.20
2022-10-01T15:53:15.900Z,15.10
2022-10-01T15:55:50.306Z,13.48
2022-10-01T15:58:24.462Z,12.75
2022-10-01T16:01:11.136Z,14.38
2022-10-01T16:04:01.413Z,13.85
2022-10-01T16:06:41.095Z,15.82
2022-10-01T16:09:18.899Z,15.25
2022-10-01T16:12:21.352Z,12.93
2022-10-01T16:15:03.463Z,14.65
2022-10-01T16:17:36.813Z,14.65
2022-10-01T16:20:15.994Z,14.20
2022-10-01T16:22:43.763Z,14.95
2022-10-01T16:25:22.802Z,13.70
2022-10-01T16:28:05.401Z,14.10
2022-10-01T16:30:34.373Z,16.00
2022-10-01T16:33:05.934Z,16.15
2022-10-01T16:35:37.822Z,15.60
2022-10-01T16:38:09.483Z,16.23
2022-10-01T16:43:16.097Z,17.65
2022-10-01T16:45:44.728Z,18.45
2022-10-01T16:48:17.740Z,17.45
2022-10-01T16:50:46.900Z,20.52
2022-10-01T16:53:18.312Z,21.25
2022-10-01T16:55:47.018Z,20.45
2022-10-01T16:58:14.550Z,20.95
2022-10-01T17:00:42.042Z,19.83
2022-10-01T17:03:17.650Z,20.58
2022-10-01T17:05:46.011Z,20.30
2022-10-01T17:08:14.529Z,22.25
2022-10-01T17:10:46.545Z,20.77
2022-10-01T17:13:15.608Z,21.50
2022-10-01T17:15:43.591Z,20.67
2022-10-01T17:18:10.886Z,18.90
2022-10-01T17:20:39.858Z,20.60
2022-10-01T17:23:09.902Z,21.25
2022-10-01T17:25:38.336Z,19.83
2022-10-01T17:28:11.476Z,22.20
2022-10-01T17:30:48.149Z,19.83
2022-10-01T17:33:19.337Z,20.88
2022-10-01T17:35:55.458Z,19.70
2022-10-01T17:38:23.164Z,20.52
2022-10-01T17:40:56.394Z,18.83
2022-10-01T17:43:24.286Z,20.77
2022-10-01T17:45:57.825Z,19.60
2022-10-01T17:48:26.507Z,18.88
2022-10-01T17:51:06.670Z,19.90
2022-10-01T17:53:42.116Z,17.45
2022-10-01T17:56:15.716Z,18.60
2022-10-01T17:58:45.659Z,16.27
2022-10-01T18:01:19.469Z,17.63
2022-10-01T18:03:47.092Z,17.00
2022-10-01T18:06:16.073Z,17.73
2022-10-01T18:08:58.758Z,17.45
2022-10-01T18:11:28.784Z,18.85
2022-10-01T18:13:56.363Z,18.83
2022-10-01T18:16:24.960Z,17.10
2022-10-01T18:19:52.442Z,17.88
2022-10-01T18:21:46.193Z,17.63
2022-10-01T18:24:15.315Z,15.63
2022-10-01T18:26:42.681Z,16.40
2022-10-01T18:29:23.582Z,16.00
2022-10-01T18:31:56.065Z,15.15
2022-10-01T18:37:07.335Z,14.93
2022-10-01T18:39:57.716Z,15.80
2022-10-01T18:42:59.322Z,14.43
2022-10-01T18:45:54.760Z,13.43
2022-10-01T18:49:10.941Z,13.23
2022-10-01T18:51:50.840Z,13.38
2022-10-01T18:54:42.172Z,12.35
2022-10-01T18:57:50.823Z,14.23
2022-10-01T19:00:23.308Z,14.02
2022-10-01T19:03:32.894Z,10.48
2022-10-01T19:06:36.839Z,9.55
2022-10-01T19:09:27.419Z,11.57
2022-10-01T19:12:09.719Z,7.10
2022-10-01T19:15:03.834Z,4.60
2022-10-01T19:18:15.033Z,6.07
2022-10-01T19:21:10.181Z,5.38
2022-10-01T19:24:26.286Z,5.63
2022-10-01T19:27:09.488Z,3.35
2022-10-01T19:30:03.660Z,3.75
2022-10-01T19:32:42.369Z,3.70
2022-10-01T19:35:39.722Z,4.07
2022-10-01T19:38:34.222Z,3.67
2022-10-01T19:41:23.269Z,3.83
2022-10-01T19:44:09.716Z,3.03
2022-10-01T19:46:47.328Z,3.25
2022-10-01T19:49:38.353Z,3.70
2022-10-01T19:52:18.325Z,4.90
2022-10-01T19:54:58.800Z,3.55
2022-10-01T19:57:29.679Z,3.00
2022-10-01T20:00:12.175Z,3.85
2022-10-01T20:02:54.569Z,3.28
2022-10-01T20:05:50.281Z,3.17
2022-10-01T20:08:45.716Z,4.25
2022-10-01T20:11:25.188Z,3.13
2022-10-01T20:14:07.370Z,3.97
2022-10-01T20:16:43.825Z,3.67
2022-10-01T20:19:27.187Z,3.08
2022-10-01T20:22:19.946Z,3.25
2022-10-01T20:25:45.807Z,4.63
2022-10-01T20:28:59.302Z,3.95
2022-10-01T20:31:39.606Z,3.15
2022-10-01T20:34:36.678Z,5.68
2022-10-01T20:37:46.714Z,3.35
2022-10-01T20:40:28.554Z,3.78
2022-10-01T20:43:28.687Z,4.70
2022-10-01T20:45:58.301Z,4.05
2022-10-01T20:48:35.117Z,3.55
2022-10-01T20:51:12.229Z,3.65
2022-10-01T20:53:59.470Z,3.88
2022-10-01T20:56:50.354Z,3.28
2022-10-01T20:59:42.442Z,4.97
2022-10-01T21:03:15.949Z,3.85
2022-10-01T21:06:10.822Z,3.83
2022-10-01T21:08:57.968Z,4.13
2022-10-01T21:11:41.404Z,3.10
2022-10-01T21:14:27.054Z,4.05
2022-10-01T21:17:01.180Z,3.38
2022-10-01T21:19:54.562Z,4.32
2022-10-01T21:23:06.740Z,3.80
2022-10-01T21:25:42.504Z,3.00
2022-10-01T21:28:44.646Z,3.25
2022-10-01T21:31:32.514Z,3.70
2022-10-01T21:34:20.210Z,5.03
2022-10-01T21:37:13.014Z,3.75
2022-10-01T21:40:29.630Z,3.22
2022-10-01T21:43:20.541Z,3.15
2022-10-01T21:45:55.037Z,3.95
2022-10-01T21:49:17.634Z,5.40
2022-10-01T21:52:13.979Z,4.35
2022-10-01T21:55:11.078Z,4.43
2022-10-01T21:58:21.794Z,3.35
2022-10-01T22:01:18.194Z,4.10
2022-10-01T22:03:57.310Z,3.33
2022-10-01T22:06:45.028Z,3.70
2022-10-01T22:09:33.233Z,3.58
2022-10-01T22:12:03.601Z,3.50
2022-10-01T22:14:31.470Z,3.88
2022-10-01T22:17:17.552Z,2.92
2022-10-01T22:19:50.978Z,3.40
2022-10-01T22:22:54.753Z,3.97
2022-10-01T22:25:22.194Z,3.20
2022-10-01T22:28:00.410Z,3.10
2022-10-01T22:30:35.435Z,2.60
2022-10-01T22:33:12.842Z,4.30
2022-10-01T22:36:15.690Z,3.17
2022-10-01T22:38:54.318Z,2.47
2022-10-01T22:41:46.378Z,4.10
2022-10-01T22:44:22.758Z,3.78
2022-10-01T22:47:18.292Z,3.28
2022-10-01T22:50:05.702Z,3.92
2022-10-01T22:52:45.131Z,3.20
2022-10-01T22:55:56.081Z,4.47
2022-10-01T22:58:59.271Z,2.65
2022-10-01T23:02:02.254Z,2.33
2022-10-01T23:05:03.091Z,3.55
2022-10-01T23:07:37.630Z,2.65
2022-10-01T23:10:21.651Z,3.55
2022-10-01T23:13:12.928Z,4.28
2022-10-01T23:16:13.852Z,4.18
2022-10-01T23:19:07.300Z,2.55
2022-10-01T23:22:17.790Z,3.00
2022-10-01T23:25:13.759Z,3.80
2022-10-01T23:28:32.824Z,4.05
2022-10-01T23:31:12.067Z,3.33
2022-10-01T23:34:07.212Z,2.67
2022-10-01T23:37:16.965Z,4.25
2022-10-01T23:39:58.699Z,4.13
2022-10-01T23:42:52.913Z,3.30
2022-10-01T23:45:51.324Z,3.38
2022-10-01T23:48:48.695Z,3.53
2022-10-01T23:51:27.465Z,3.35
2022-10-01T23:54:22.178Z,3.78
2022-10-01T23:57:02.338Z,3.75
2022-10-01T23:59:59.186Z,2.85
